createdAt,value
2023-03-26T00:02:23.600Z,99019.31
2023-03-26T00:04:53.313Z,99012.19
2023-03-26T00:07:21.029Z,99003.00
2023-03-26T00:09:48.988Z,99011.69
2023-03-26T00:12:16.821Z,99014.91
2023-03-26T00:14:45.098Z,99011.97
2023-03-26T00:17:12.828Z,99015.38
2023-03-26T00:19:40.501Z,99018.75
2023-03-26T00:22:08.437Z,99016.81
2023-03-26T00:24:37.752Z,99017.53
2023-03-26T00:27:05.875Z,99021.88
2023-03-26T00:29:35.866Z,99015.72
2023-03-26T00:32:03.673Z,99008.47
2023-03-26T00:34:34.915Z,99013.66
2023-03-26T00:37:03.265Z,99009.03
2023-03-26T00:39:35.843Z,99000.97
2023-03-26T00:42:07.315Z,98993.59
2023-03-26T00:44:35.736Z,99000.56
2023-03-26T00:47:03.715Z,99001.25
2023-03-26T00:49:32.169Z,98994.03
2023-03-26T00:51:59.817Z,99001.72
2023-03-26T00:54:28.682Z,99002.44
2023-03-26T00:56:56.764Z,98997.84
2023-03-26T00:59:24.463Z,98989.88
2023-03-26T01:01:55.174Z,98988.19
2023-03-26T01:04:24.446Z,98982.88
2023-03-26T01:06:52.329Z,98977.44
2023-03-26T01:09:20.258Z,98978.03
2023-03-26T01:11:47.975Z,98960.16
2023-03-26T01:14:15.700Z,98967.88
2023-03-26T01:16:45.146Z,98970.22
2023-03-26T01:19:13.107Z,98961.19
2023-03-26T01:21:41.340Z,98964.53
2023-03-26T01:24:09.026Z,98966.34
2023-03-26T01:26:36.654Z,98948.75
2023-03-26T01:29:04.569Z,98951.41
2023-03-26T01:31:37.059Z,98953.22
2023-03-26T01:34:05.648Z,98944.41
2023-03-26T01:36:33.450Z,98949.72
2023-03-26T01:39:01.581Z,98954.06
2023-03-26T01:41:29.278Z,98946.09
2023-03-26T01:43:56.859Z,98946.94
2023-03-26T01:46:26.120Z,98953.91
2023-03-26T01:48:53.756Z,98936.19
2023-03-26T01:51:21.377Z,98945.81
2023-03-26T01:53:49.051Z,98942.19
2023-03-26T01:56:16.693Z,98935.78
2023-03-26T01:58:44.866Z,98936.59
2023-03-26T02:01:13.635Z,98935.66
2023-03-26T02:03:41.412Z,98935.50
2023-03-26T02:06:09.990Z,98927.41
2023-03-26T02:08:37.643Z,98923.78
2023-03-26T02:11:06.172Z,98922.81
2023-03-26T02:13:33.841Z,98924.47
2023-03-26T02:16:01.519Z,98919.16
2023-03-26T02:18:36.426Z,98913.84
2023-03-26T02:21:04.175Z,98912.91
2023-03-26T02:23:36.152Z,98908.44
2023-03-26T02:26:03.839Z,98903.97
2023-03-26T02:28:31.459Z,98903.13
2023-03-26T02:31:01.930Z,98895.28
2023-03-26T02:33:29.712Z,98892.78
2023-03-26T02:35:59.981Z,98891.13
2023-03-26T02:38:27.874Z,98889.41
2023-03-26T02:40:55.596Z,98884.09
2023-03-26T02:43:23.686Z,98884.09
2023-03-26T02:45:51.380Z,98880.75
2023-03-26T02:48:19.594Z,98879.06
2023-03-26T02:50:50.223Z,98881.84
2023-03-26T02:53:17.898Z,98874.88
2023-03-26T02:55:45.612Z,98876.84
2023-03-26T02:58:17.468Z,98876.13
2023-03-26T03:00:45.196Z,98871.94
2023-03-26T03:03:12.897Z,98871.94
2023-03-26T03:05:43.356Z,98871.81
2023-03-26T03:08:11.004Z,98869.84
2023-03-26T03:10:39.650Z,98872.22
2023-03-26T03:13:08.296Z,98864.00
2023-03-26T03:15:36.121Z,98865.41
2023-03-26T03:18:03.991Z,98854.78
2023-03-26T03:20:31.678Z,98860.66
2023-03-26T03:22:59.310Z,98859.66
2023-03-26T03:25:27.339Z,98849.78
2023-03-26T03:27:55.228Z,98840.13
2023-03-26T03:30:22.829Z,98832.44
2023-03-26T03:32:50.501Z,98832.16
2023-03-26T03:35:18.200Z,98833.53
2023-03-26T03:37:46.407Z,98819.13
2023-03-26T03:40:14.088Z,98825.00
2023-03-26T03:42:41.762Z,98816.72
2023-03-26T03:45:09.473Z,98816.44
2023-03-26T03:47:37.150Z,98809.16
2023-03-26T03:50:05.375Z,98809.97
2023-03-26T03:52:33.032Z,98806.16
2023-03-26T03:55:01.249Z,98803.34
2023-03-26T03:57:28.831Z,98813.53
2023-03-26T03:59:58.340Z,98814.06
2023-03-26T04:02:31.004Z,98805.66
2023-03-26T04:04:58.764Z,98799.06
2023-03-26T04:07:26.405Z,98799.59
2023-03-26T04:09:54.438Z,98799.88
2023-03-26T04:12:22.111Z,98785.09
2023-03-26T04:14:50.496Z,98795.94
2023-03-26T04:17:18.208Z,98793.56
2023-03-26T04:19:45.894Z,98788.25
2023-03-26T04:22:13.504Z,98777.66
2023-03-26T04:24:41.373Z,98782.25
2023-03-26T04:27:10.012Z,98777.94
2023-03-26T04:29:38.380Z,98767.19
2023-03-26T04:32:08.380Z,98768.50
2023-03-26T04:34:36.449Z,98772.13
2023-03-26T04:37:04.103Z,98771.31
2023-03-26T04:39:34.569Z,98761.75
2023-03-26T04:42:02.147Z,98753.81
2023-03-26T04:44:30.429Z,98749.50
2023-03-26T04:46:58.081Z,98752.63
2023-03-26T04:49:25.842Z,98742.56
2023-03-26T04:51:53.793Z,98735.19
2023-03-26T04:54:21.818Z,98743.84
2023-03-26T04:56:49.403Z,98732.97
2023-03-26T04:59:16.990Z,98735.34
2023-03-26T05:01:46.162Z,98731.88
2023-03-26T05:04:14.541Z,98731.69
2023-03-26T05:06:43.016Z,98724.59
2023-03-26T05:09:10.826Z,98716.66
2023-03-26T05:11:38.425Z,98723.91
2023-03-26T05:14:06.032Z,98724.03
2023-03-26T05:16:35.002Z,98716.09
2023-03-26T05:19:02.731Z,98716.91
2023-03-26T05:21:30.442Z,98700.16
2023-03-26T05:23:58.089Z,98702.81
2023-03-26T05:26:26.166Z,98693.03
2023-03-26T05:28:53.965Z,98699.19
2023-03-26T05:31:22.480Z,98687.59
2023-03-26T05:33:50.058Z,98683.28
2023-03-26T05:36:17.753Z,98681.47
2023-03-26T05:38:47.855Z,98675.19
2023-03-26T05:41:15.995Z,98677.84
2023-03-26T05:43:43.698Z,98675.03
2023-03-26T05:46:11.436Z,98674.03
2023-03-26T05:48:39.414Z,98669.59
2023-03-26T05:51:08.046Z,98665.13
2023-03-26T05:53:36.116Z,98664.97
2023-03-26T05:56:04.355Z,98660.53
2023-03-26T05:58:31.934Z,98657.56
2023-03-26T06:01:00.173Z,98656.59
2023-03-26T06:03:27.994Z,98648.50
2023-03-26T06:05:56.345Z,98647.41
2023-03-26T06:08:24.071Z,98643.63
2023-03-26T06:10:51.967Z,98646.97
2023-03-26T06:13:19.649Z,98640.69
2023-03-26T06:15:47.292Z,98637.91
2023-03-26T06:18:15.586Z,98633.28
2023-03-26T06:20:43.696Z,98634.13
2023-03-26T06:23:11.402Z,98633.97
2023-03-26T06:25:38.977Z,98628.53
2023-03-26T06:28:06.697Z,98629.22
2023-03-26T06:30:35.040Z,98624.63
2023-03-26T06:33:02.725Z,98617.34
2023-03-26T06:35:30.482Z,98618.03
2023-03-26T06:37:58.167Z,98612.59
2023-03-26T06:40:26.007Z,98613.28
2023-03-26T06:43:09.198Z,98614.25
2023-03-26T06:45:38.223Z,98620.41
2023-03-26T06:48:05.909Z,98612.59
2023-03-26T06:50:33.573Z,98616.38
2023-03-26T06:53:01.546Z,98612.03
2023-03-26T06:55:29.212Z,98612.84
2023-03-26T06:57:58.265Z,98607.56
2023-03-26T07:00:26.188Z,98614.56
2023-03-26T07:02:53.788Z,98612.72
2023-03-26T07:05:21.523Z,98609.94
2023-03-26T07:07:50.785Z,98615.13
2023-03-26T07:10:18.469Z,98615.94
2023-03-26T07:12:46.158Z,98612.47
2023-03-26T07:15:13.824Z,98609.25
2023-03-26T07:17:42.082Z,98610.50
2023-03-26T07:20:09.705Z,98604.50
2023-03-26T07:22:37.397Z,98604.78
2023-03-26T07:25:05.123Z,98603.97
2023-03-26T07:27:32.858Z,98602.28
2023-03-26T07:30:00.862Z,98593.47
2023-03-26T07:32:28.517Z,98589.84
2023-03-26T07:34:56.253Z,98596.69
2023-03-26T07:37:23.987Z,98596.56
2023-03-26T07:39:51.769Z,98592.63
2023-03-26T07:42:19.929Z,98587.84
2023-03-26T07:44:47.943Z,98582.13
2023-03-26T07:47:15.709Z,98581.84
2023-03-26T07:49:43.512Z,98578.75
2023-03-26T07:52:11.223Z,98578.31
2023-03-26T07:54:39.252Z,98572.72
2023-03-26T07:57:07.020Z,98574.78
2023-03-26T07:59:34.759Z,98567.38
2023-03-26T08:02:02.437Z,98561.63
2023-03-26T08:04:30.397Z,98557.03
2023-03-26T08:06:59.881Z,98559.38
2023-03-26T08:09:27.919Z,98555.41
2023-03-26T08:11:55.650Z,98545.66
2023-03-26T08:14:23.460Z,98549.00
2023-03-26T08:16:51.112Z,98545.22
2023-03-26T08:19:19.213Z,98542.41
2023-03-26T08:21:48.155Z,98542.97
2023-03-26T08:24:16.397Z,98535.81
2023-03-26T08:26:44.250Z,98534.69
2023-03-26T08:29:12.470Z,98536.34
2023-03-26T08:31:40.609Z,98546.69
2023-03-26T08:34:08.390Z,98529.78
2023-03-26T08:36:36.080Z,98538.28
2023-03-26T08:39:04.405Z,98531.97
2023-03-26T08:41:32.136Z,98527.34
2023-03-26T08:44:00.589Z,98528.88
2023-03-26T08:46:28.391Z,98525.91
2023-03-26T08:48:56.218Z,98520.31
2023-03-26T08:51:24.117Z,98513.00
2023-03-26T08:53:51.874Z,98515.38
2023-03-26T08:56:20.168Z,98513.94
2023-03-26T08:58:48.159Z,98516.28
2023-03-26T09:01:15.961Z,98512.63
2023-03-26T09:03:43.700Z,98513.34
2023-03-26T09:06:11.505Z,98514.16
2023-03-26T09:08:54.560Z,98514.03
2023-03-26T09:11:22.534Z,98509.53
2023-03-26T09:13:50.278Z,98504.22
2023-03-26T09:16:18.029Z,98512.03
2023-03-26T09:18:45.797Z,98513.84
2023-03-26T09:21:13.549Z,98506.72
2023-03-26T09:23:41.356Z,98505.88
2023-03-26T09:26:09.065Z,98508.25
2023-03-26T09:28:36.993Z,98503.59
2023-03-26T09:31:05.600Z,98503.31
2023-03-26T09:33:33.660Z,98505.81
2023-03-26T09:36:01.531Z,98503.00
2023-03-26T09:38:29.298Z,98497.53
2023-03-26T09:40:57.447Z,98502.69
2023-03-26T09:43:25.879Z,98498.22
2023-03-26T09:45:53.810Z,98490.09
2023-03-26T09:48:21.768Z,98488.41
2023-03-26T09:50:50.238Z,98495.41
2023-03-26T09:53:18.013Z,98494.56
2023-03-26T09:55:47.418Z,98489.41
2023-03-26T09:58:15.091Z,98485.91
2023-03-26T10:00:43.050Z,98483.41
2023-03-26T10:03:10.880Z,98494.03
2023-03-26T10:05:41.567Z,98484.25
2023-03-26T10:08:10.399Z,98483.41
2023-03-26T10:10:38.264Z,98479.94
2023-03-26T10:13:14.634Z,98484.25
2023-03-26T10:15:42.974Z,98482.41
2023-03-26T10:18:27.354Z,98481.41
2023-03-26T10:20:57.437Z,98478.75
2023-03-26T10:23:25.211Z,98478.75
2023-03-26T10:25:53.050Z,98477.78
2023-03-26T10:28:21.345Z,98470.66
2023-03-26T10:30:49.271Z,98473.97
2023-03-26T10:33:17.001Z,98473.84
2023-03-26T10:35:45.302Z,98465.19
2023-03-26T10:38:13.136Z,98468.66
2023-03-26T10:40:43.676Z,98466.00
2023-03-26T10:43:12.778Z,98470.19
2023-03-26T10:45:40.750Z,98469.19
2023-03-26T10:48:08.466Z,98463.72
2023-03-26T10:50:36.428Z,98465.53
2023-03-26T10:53:04.701Z,98453.22
2023-03-26T10:55:32.582Z,98462.22
2023-03-26T10:58:00.972Z,98457.88
2023-03-26T11:00:29.376Z,98453.41
2023-03-26T11:02:57.137Z,98460.41
2023-03-26T11:05:25.176Z,98459.53
2023-03-26T11:07:54.071Z,98459.03
2023-03-26T11:10:22.030Z,98453.50
2023-03-26T11:12:50.178Z,98447.94
2023-03-26T11:15:18.040Z,98460.34
2023-03-26T11:17:46.480Z,98462.91
2023-03-26T11:20:14.491Z,98457.22
2023-03-26T11:22:42.343Z,98458.00
2023-03-26T11:25:10.147Z,98450.06
2023-03-26T11:27:38.039Z,98454.63
2023-03-26T11:30:06.622Z,98457.34
2023-03-26T11:32:34.582Z,98451.63
2023-03-26T11:35:02.719Z,98450.81
2023-03-26T11:37:30.888Z,98448.84
2023-03-26T11:39:59.065Z,98454.53
2023-03-26T11:42:27.673Z,98448.78
2023-03-26T11:44:55.507Z,98449.81
2023-03-26T11:47:23.570Z,98448.41
2023-03-26T11:49:51.613Z,98441.50
2023-03-26T11:52:19.515Z,98445.06
2023-03-26T11:54:48.699Z,98440.66
2023-03-26T11:57:16.796Z,98438.22
2023-03-26T11:59:56.429Z,98431.47
2023-03-26T12:02:26.199Z,98433.38
2023-03-26T12:04:55.904Z,98433.56
2023-03-26T12:07:23.680Z,98426.31
2023-03-26T12:09:51.652Z,98431.63
2023-03-26T12:12:19.455Z,98426.75
2023-03-26T12:14:47.316Z,98430.56
2023-03-26T12:17:15.880Z,98429.19
2023-03-26T12:19:43.912Z,98430.31
2023-03-26T12:22:11.796Z,98425.84
2023-03-26T12:24:39.943Z,98428.03
2023-03-26T12:27:07.819Z,98416.81
2023-03-26T12:29:36.148Z,98421.66
2023-03-26T12:32:04.101Z,98420.19
2023-03-26T12:34:35.132Z,98418.59
2023-03-26T12:37:03.973Z,98414.34
2023-03-26T12:40:07.747Z,98411.06
2023-03-26T12:44:43.636Z,98419.75
2023-03-26T12:45:09.155Z,98408.50
2023-03-26T12:48:01.001Z,98410.69
2023-03-26T12:50:34.936Z,98405.88
2023-03-26T12:53:04.416Z,98408.22
2023-03-26T12:55:32.266Z,98403.25
2023-03-26T12:58:00.158Z,98408.09
2023-03-26T13:00:41.981Z,98401.63
2023-03-26T13:03:11.699Z,98400.13
2023-03-26T13:05:40.079Z,98401.13
2023-03-26T13:08:08.448Z,98404.13
2023-03-26T13:10:36.464Z,98398.63
2023-03-26T13:13:05.501Z,98402.78
2023-03-26T13:15:34.181Z,98397.84
2023-03-26T13:18:02.525Z,98397.34
2023-03-26T13:20:30.533Z,98390.53
2023-03-26T13:22:58.359Z,98399.91
2023-03-26T13:25:26.661Z,98394.59
2023-03-26T13:27:55.176Z,98390.44
2023-03-26T13:30:23.334Z,98386.97
2023-03-26T13:32:51.188Z,98396.97
2023-03-26T13:35:19.323Z,98389.00
2023-03-26T13:37:47.281Z,98381.38
2023-03-26T13:40:16.081Z,98390.03
2023-03-26T13:42:43.978Z,98383.38
2023-03-26T13:45:11.840Z,98385.91
2023-03-26T13:47:40.033Z,98378.75
2023-03-26T13:50:08.072Z,98385.09
2023-03-26T13:52:36.621Z,98384.75
2023-03-26T13:55:04.454Z,98379.41
2023-03-26T13:57:32.339Z,98378.59
2023-03-26T14:00:00.184Z,98387.41
2023-03-26T14:02:28.283Z,98384.75
2023-03-26T14:04:56.617Z,98385.59
2023-03-26T14:07:25.109Z,98382.75
2023-03-26T14:09:53.246Z,98387.75
2023-03-26T14:12:22.051Z,98393.09
2023-03-26T14:14:49.952Z,98389.25
2023-03-26T14:17:18.265Z,98391.75
2023-03-26T14:19:47.810Z,98391.06
2023-03-26T14:22:18.596Z,98393.94
2023-03-26T14:24:46.413Z,98391.25
2023-03-26T14:27:14.447Z,98397.75
2023-03-26T14:29:56.697Z,98399.75
2023-03-26T14:32:26.316Z,98394.09
2023-03-26T14:34:54.446Z,98402.19
2023-03-26T14:37:27.954Z,98401.31
2023-03-26T14:39:56.382Z,98407.31
2023-03-26T14:42:24.314Z,98406.91
2023-03-26T14:44:52.047Z,98416.50
2023-03-26T14:47:20.039Z,98411.75
2023-03-26T14:49:48.028Z,98421.34
2023-03-26T14:52:16.249Z,98425.22
2023-03-26T14:54:44.241Z,98428.16
2023-03-26T14:57:12.277Z,98430.88
2023-03-26T14:59:40.238Z,98423.69
2023-03-26T15:02:08.230Z,98430.63
2023-03-26T15:04:36.756Z,98439.34
2023-03-26T15:07:05.060Z,98445.44
2023-03-26T15:09:33.025Z,98446.06
2023-03-26T15:12:12.916Z,98456.47
2023-03-26T15:14:41.686Z,98452.56
2023-03-26T15:17:09.790Z,98456.53
2023-03-26T15:19:38.268Z,98456.81
2023-03-26T15:22:06.496Z,98458.66
2023-03-26T15:24:34.233Z,98466.63
2023-03-26T15:27:03.161Z,98472.63
2023-03-26T15:29:31.283Z,98467.03
2023-03-26T15:31:59.316Z,98471.03
2023-03-26T15:34:30.222Z,98474.53
2023-03-26T15:36:59.214Z,98476.19
2023-03-26T15:39:28.265Z,98482.19
2023-03-26T15:41:56.124Z,98479.84
2023-03-26T15:44:25.585Z,98491.75
2023-03-26T15:46:53.691Z,98489.88
2023-03-26T15:49:21.535Z,98499.25
2023-03-26T15:51:49.632Z,98500.53
2023-03-26T15:54:17.940Z,98509.78
2023-03-26T15:56:49.309Z,98510.09
2023-03-26T15:59:17.758Z,98516.53
2023-03-26T16:01:46.472Z,98517.66
2023-03-26T16:04:15.157Z,98520.19
2023-03-26T16:06:46.972Z,98528.00
2023-03-26T16:09:15.063Z,98530.81
2023-03-26T16:11:42.834Z,98530.25
2023-03-26T16:14:11.184Z,98528.88
2023-03-26T16:16:39.826Z,98534.78
2023-03-26T16:19:08.533Z,98542.03
2023-03-26T16:21:36.881Z,98548.50
2023-03-26T16:24:04.604Z,98549.09
2023-03-26T16:26:32.366Z,98553.84
2023-03-26T16:29:00.698Z,98562.25
2023-03-26T16:31:38.307Z,98567.84
2023-03-26T16:34:08.605Z,98565.63
2023-03-26T16:36:36.617Z,98563.41
2023-03-26T16:39:05.542Z,98576.00
2023-03-26T16:41:33.690Z,98576.56
2023-03-26T16:44:02.444Z,98577.69
2023-03-26T16:46:30.264Z,98580.63
2023-03-26T16:48:58.397Z,98579.09
2023-03-26T16:51:26.716Z,98589.16
2023-03-26T16:53:54.631Z,98590.28
2023-03-26T16:56:28.295Z,98592.25
2023-03-26T16:58:56.556Z,98601.31
2023-03-26T17:01:28.005Z,98609.56
2023-03-26T17:03:58.936Z,98617.78
2023-03-26T17:06:26.919Z,98628.00
2023-03-26T17:08:54.825Z,98631.22
2023-03-26T17:11:22.816Z,98645.88
2023-03-26T17:13:51.002Z,98646.56
2023-03-26T17:16:18.872Z,98654.91
2023-03-26T17:18:46.962Z,98657.84
2023-03-26T17:21:14.885Z,98671.22
2023-03-26T17:23:42.798Z,98676.81
2023-03-26T17:26:11.376Z,98677.75
2023-03-26T17:28:39.738Z,98683.22
2023-03-26T17:31:07.866Z,98686.97
2023-03-26T17:33:37.030Z,98694.81
2023-03-26T17:36:04.932Z,98698.41
2023-03-26T17:38:32.796Z,98709.16
2023-03-26T17:41:00.702Z,98707.75
2023-03-26T17:43:28.792Z,98707.88
2023-03-26T17:46:04.103Z,98716.81
2023-03-26T17:48:35.758Z,98724.75
2023-03-26T17:51:03.908Z,98725.88
2023-03-26T17:53:31.780Z,98731.44
2023-03-26T17:56:01.486Z,98733.28
2023-03-26T17:58:29.450Z,98743.03
2023-03-26T18:00:58.823Z,98746.53
2023-03-26T18:03:29.592Z,98745.66
2023-03-26T18:05:58.697Z,98756.16
2023-03-26T18:08:26.302Z,98757.94
2023-03-26T18:10:54.386Z,98769.66
2023-03-26T18:13:22.399Z,98768.81
2023-03-26T18:15:50.297Z,98774.94
2023-03-26T18:18:20.182Z,98779.56
2023-03-26T18:20:48.145Z,98787.50
2023-03-26T18:23:15.997Z,98791.94
2023-03-26T18:25:44.746Z,98793.06
2023-03-26T18:28:12.566Z,98803.81
2023-03-26T18:30:40.434Z,98808.66
2023-03-26T18:33:08.600Z,98812.41
2023-03-26T18:35:36.464Z,98820.63
2023-03-26T18:38:05.233Z,98828.13
2023-03-26T18:40:33.601Z,98829.25
2023-03-26T18:43:01.534Z,98831.31
2023-03-26T18:45:29.618Z,98844.91
2023-03-26T18:47:57.781Z,98839.91
2023-03-26T18:50:26.008Z,98851.75
2023-03-26T18:52:54.164Z,98860.91
2023-03-26T18:55:22.135Z,98863.66
2023-03-26T18:57:49.902Z,98867.41
2023-03-26T19:00:18.765Z,98875.63
2023-03-26T19:02:48.721Z,98883.84
2023-03-26T19:05:16.970Z,98883.09
2023-03-26T19:07:46.098Z,98882.66
2023-03-26T19:10:14.576Z,98893.38
2023-03-26T19:12:42.445Z,98895.31
2023-03-26T19:15:10.681Z,98895.31
2023-03-26T19:17:38.942Z,98899.75
2023-03-26T19:20:10.341Z,98918.53
2023-03-26T19:22:41.750Z,98914.22
2023-03-26T19:25:09.560Z,98922.53
2023-03-26T19:27:39.223Z,98932.53
2023-03-26T19:30:07.778Z,98938.06
2023-03-26T19:32:35.789Z,98933.03
2023-03-26T19:35:04.724Z,98945.69
2023-03-26T19:37:32.859Z,98940.50
2023-03-26T19:40:02.082Z,98947.84
2023-03-26T19:42:42.925Z,98956.75
2023-03-26T19:45:12.560Z,98956.88
2023-03-26T19:47:50.109Z,98966.84
2023-03-26T19:50:21.699Z,98962.69
2023-03-26T19:52:52.174Z,98970.72
2023-03-26T19:55:20.243Z,98983.25
2023-03-26T19:57:48.206Z,98975.69
2023-03-26T20:00:16.374Z,98985.41
2023-03-26T20:02:46.495Z,98991.78
2023-03-26T20:05:14.827Z,98992.84
2023-03-26T20:07:44.936Z,98996.47
2023-03-26T20:10:12.947Z,99009.69
2023-03-26T20:12:40.837Z,99016.06
2023-03-26T20:15:09.112Z,99018.97
2023-03-26T20:17:50.402Z,99028.09
2023-03-26T20:20:18.249Z,99027.84
2023-03-26T20:22:47.134Z,99029.28
2023-03-26T20:25:15.138Z,99038.66
2023-03-26T20:27:43.041Z,99049.72
2023-03-26T20:30:12.148Z,99054.88
2023-03-26T20:32:45.157Z,99054.72
2023-03-26T20:35:13.451Z,99065.13
2023-03-26T20:37:41.603Z,99066.69
2023-03-26T20:40:09.588Z,99075.19
2023-03-26T20:42:38.034Z,99085.47
2023-03-26T20:45:05.976Z,99086.03
2023-03-26T20:47:34.728Z,99093.66
2023-03-26T20:50:03.173Z,99098.66
2023-03-26T20:52:31.103Z,99102.81
2023-03-26T20:54:59.491Z,99106.00
2023-03-26T20:57:28.178Z,99112.78
2023-03-26T20:59:55.906Z,99121.25
2023-03-26T21:02:23.913Z,99122.53
2023-03-26T21:04:52.367Z,99129.91
2023-03-26T21:07:20.190Z,99136.63
2023-03-26T21:09:48.971Z,99137.03
2023-03-26T21:12:17.037Z,99144.31
2023-03-26T21:14:45.602Z,99150.75
2023-03-26T21:17:13.516Z,99153.81
2023-03-26T21:19:41.635Z,99155.19
2023-03-26T21:22:09.462Z,99161.63
2023-03-26T21:24:37.424Z,99162.91
2023-03-26T21:27:05.998Z,99171.13
2023-03-26T21:29:33.866Z,99173.97
2023-03-26T21:32:01.774Z,99178.50
2023-03-26T21:34:29.630Z,99184.09
2023-03-26T21:36:57.751Z,99194.09
2023-03-26T21:39:26.075Z,99204.31
2023-03-26T21:42:05.455Z,99206.28
2023-03-26T21:44:33.829Z,99211.78
2023-03-26T21:47:01.665Z,99219.88
2023-03-26T21:49:30.034Z,99223.59
2023-03-26T21:51:57.988Z,99222.72
2023-03-26T21:54:25.843Z,99222.94
2023-03-26T21:56:53.902Z,99229.44
2023-03-26T21:59:21.827Z,99233.22
2023-03-26T22:01:50.222Z,99232.75
2023-03-26T22:04:18.104Z,99236.66
2023-03-26T22:06:45.978Z,99247.50
2023-03-26T22:09:16.656Z,99256.53
2023-03-26T22:11:46.673Z,99262.84
2023-03-26T22:14:14.984Z,99274.63
2023-03-26T22:16:42.766Z,99273.31
2023-03-26T22:19:11.074Z,99275.19
2023-03-26T22:21:39.136Z,99282.34
2023-03-26T22:24:07.646Z,99289.69
2023-03-26T22:26:35.379Z,99293.53
2023-03-26T22:29:03.257Z,99303.41
2023-03-26T22:31:31.108Z,99296.66
2023-03-26T22:33:58.967Z,99293.47
2023-03-26T22:36:27.510Z,99298.06
2023-03-26T22:38:55.984Z,99306.25
2023-03-26T22:41:23.682Z,99314.34
2023-03-26T22:43:52.995Z,99320.63
2023-03-26T22:46:20.869Z,99325.13
2023-03-26T22:48:49.677Z,99336.50
2023-03-26T22:51:17.901Z,99341.13
2023-03-26T22:53:45.610Z,99347.13
2023-03-26T22:56:14.468Z,99349.88
2023-03-26T22:58:42.393Z,99354.47
2023-03-26T23:01:10.375Z,99352.84
2023-03-26T23:03:39.834Z,99361.59
2023-03-26T23:06:08.188Z,99365.81
2023-03-26T23:08:36.425Z,99370.13
2023-03-26T23:11:04.208Z,99376.34
2023-03-26T23:13:32.151Z,99379.25
2023-03-26T23:16:06.347Z,99382.16
2023-03-26T23:18:34.049Z,99391.94
2023-03-26T23:21:01.771Z,99389.38
2023-03-26T23:23:29.535Z,99391.34
2023-03-26T23:25:58.895Z,99397.47
2023-03-26T23:28:26.904Z,99401.13
2023-03-26T23:30:54.852Z,99408.25
2023-03-26T23:33:22.875Z,99410.13
2023-03-26T23:35:50.852Z,99417.19
2023-03-26T23:38:19.580Z,99418.00
2023-03-26T23:40:57.021Z,99416.97
2023-03-26T23:43:25.556Z,99431.06
2023-03-26T23:45:53.253Z,99438.38
2023-03-26T23:48:22.438Z,99441.13
2023-03-26T23:50:51.165Z,99441.13
2023-03-26T23:53:18.756Z,99444.84
2023-03-26T23:55:46.413Z,99456.66
2023-03-26T23:58:14.127Z,99458.59
